createdAt,value
2022-11-21T00:00:04.657Z,99.99
2022-11-21T00:00:14.612Z,99.99
2022-11-21T00:00:25.534Z,99.99
2022-11-21T00:00:34.690Z,99.99
2022-11-21T00:00:44.619Z,99.99
2022-11-21T00:00:57.671Z,99.99
2022-11-21T00:01:05.504Z,99.99
2022-11-21T00:01:14.625Z,99.99
2022-11-21T00:01:24.620Z,99.99
2022-11-21T00:01:34.698Z,99.99
2022-11-21T00:01:44.765Z,99.99
2022-11-21T00:01:55.571Z,99.99
2022-11-21T00:02:04.730Z,99.99
2022-11-21T00:02:14.666Z,99.99
2022-11-21T00:02:24.680Z,99.99
2022-11-21T00:02:34.653Z,99.99
2022-11-21T00:02:44.630Z,99.99
2022-11-21T00:02:54.625Z,99.99
2022-11-21T00:03:05.519Z,99.99
2022-11-21T00:03:14.691Z,99.99
2022-11-21T00:03:24.670Z,99.99
2022-11-21T00:03:34.610Z,99.99
2022-11-21T00:03:44.642Z,99.99
2022-11-21T00:03:54.619Z,99.99
2022-11-21T00:04:04.607Z,99.99
2022-11-21T00:04:14.607Z,99.99
2022-11-21T00:04:24.934Z,99.99
2022-11-21T00:04:34.620Z,99.99
2022-11-21T00:04:44.639Z,99.99
2022-11-21T00:04:54.624Z,99.99
2022-11-21T00:05:04.610Z,99.99
2022-11-21T00:05:14.659Z,99.99
2022-11-21T00:05:24.604Z,99.99
2022-11-21T00:05:34.613Z,99.99
2022-11-21T00:05:45.632Z,99.99
2022-11-21T00:05:54.678Z,99.99
2022-11-21T00:06:04.610Z,99.99
2022-11-21T00:06:14.647Z,99.99
2022-11-21T00:06:24.594Z,99.99
2022-11-21T00:06:34.609Z,99.99
2022-11-21T00:06:44.596Z,99.99
2022-11-21T00:06:54.656Z,99.99
2022-11-21T00:07:04.617Z,99.99
2022-11-21T00:07:14.667Z,99.99
2022-11-21T00:07:24.639Z,99.99
2022-11-21T00:07:34.645Z,99.99
2022-11-21T00:07:44.626Z,99.99
2022-11-21T00:07:54.606Z,99.99
2022-11-21T00:08:04.589Z,99.99
2022-11-21T00:08:14.660Z,99.99
2022-11-21T00:08:24.606Z,99.99
2022-11-21T00:08:35.555Z,99.99
2022-11-21T00:08:45.559Z,99.99
2022-11-21T00:08:54.606Z,99.99
2022-11-21T00:09:04.599Z,99.99
2022-11-21T00:09:14.636Z,99.99
2022-11-21T00:09:24.718Z,99.99
2022-11-21T00:09:34.594Z,99.99
2022-11-21T00:09:44.579Z,99.99
2022-11-21T00:09:54.617Z,99.99
2022-11-21T00:10:04.587Z,99.99
2022-11-21T00:10:15.595Z,99.99
2022-11-21T00:10:24.575Z,99.99
2022-11-21T00:10:34.591Z,99.99
2022-11-21T00:10:44.586Z,99.99
2022-11-21T00:10:54.573Z,99.99
2022-11-21T00:11:04.619Z,99.99
2022-11-21T00:11:14.608Z,99.99
2022-11-21T00:11:25.512Z,99.99
2022-11-21T00:11:34.575Z,99.99
2022-11-21T00:11:44.599Z,99.99
2022-11-21T00:11:54.572Z,99.99
2022-11-21T00:12:04.667Z,99.99
2022-11-21T00:12:14.582Z,99.99
2022-11-21T00:12:25.512Z,99.99
2022-11-21T00:12:34.581Z,99.99
2022-11-21T00:12:44.592Z,99.99
2022-11-21T00:12:54.580Z,99.99
2022-11-21T00:13:04.573Z,99.99
2022-11-21T00:13:14.570Z,99.99
2022-11-21T00:13:25.619Z,99.99
2022-11-21T00:13:34.637Z,99.99
2022-11-21T00:13:44.573Z,99.99
2022-11-21T00:13:54.590Z,99.99
2022-11-21T00:14:04.577Z,99.99
2022-11-21T00:14:14.568Z,99.99
2022-11-21T00:14:24.784Z,99.99
2022-11-21T00:14:34.588Z,99.99
2022-11-21T00:14:44.573Z,99.99
2022-11-21T00:14:54.560Z,99.99
2022-11-21T00:15:04.645Z,99.99
2022-11-21T00:15:14.676Z,99.99
2022-11-21T00:15:24.569Z,99.99
2022-11-21T00:15:34.634Z,99.99
2022-11-21T00:15:44.593Z,99.99
2022-11-21T00:15:54.600Z,99.99
2022-11-21T00:16:05.571Z,99.99
2022-11-21T00:16:14.573Z,99.99
2022-11-21T00:16:24.577Z,99.99
2022-11-21T00:16:34.560Z,99.99
2022-11-21T00:16:45.506Z,99.99
2022-11-21T00:16:57.267Z,99.99
2022-11-21T00:17:04.584Z,99.99
2022-11-21T00:17:14.629Z,99.99
2022-11-21T00:17:24.556Z,99.99
2022-11-21T00:17:34.625Z,99.99
2022-11-21T00:17:44.676Z,99.99
2022-11-21T00:17:54.560Z,99.99
2022-11-21T00:18:05.518Z,99.99
2022-11-21T00:18:14.596Z,99.99
2022-11-21T00:18:24.565Z,99.99
2022-11-21T00:18:34.568Z,99.99
2022-11-21T00:18:44.724Z,99.99
2022-11-21T00:18:54.620Z,99.99
2022-11-21T00:19:04.571Z,99.99
2022-11-21T00:19:14.560Z,99.99
2022-11-21T00:19:24.578Z,99.99
2022-11-21T00:19:34.677Z,99.99
2022-11-21T00:19:44.602Z,99.99
2022-11-21T00:19:54.540Z,99.99
2022-11-21T00:20:05.471Z,99.99
2022-11-21T00:20:14.540Z,99.99
2022-11-21T00:20:25.546Z,99.99
2022-11-21T00:20:34.670Z,99.99
2022-11-21T00:20:45.523Z,99.99
2022-11-21T00:20:54.538Z,99.99
2022-11-21T00:21:04.535Z,99.99
2022-11-21T00:21:14.569Z,99.99
2022-11-21T00:21:24.543Z,99.99
2022-11-21T00:21:34.580Z,99.99
2022-11-21T00:21:44.630Z,99.99
2022-11-21T00:21:54.657Z,99.99
2022-11-21T00:22:04.543Z,99.99
2022-11-21T00:22:14.527Z,99.99
2022-11-21T00:22:24.660Z,99.99
2022-11-21T00:22:34.561Z,99.99
2022-11-21T00:22:44.527Z,99.99
2022-11-21T00:22:54.587Z,99.99
2022-11-21T00:23:04.533Z,99.99
2022-11-21T00:23:14.540Z,99.99
2022-11-21T00:23:24.567Z,99.99
2022-11-21T00:23:34.544Z,99.99
2022-11-21T00:23:44.569Z,99.99
2022-11-21T00:23:54.574Z,99.99
2022-11-21T00:24:04.531Z,99.99
2022-11-21T00:24:14.560Z,99.99
2022-11-21T00:24:24.934Z,99.99
2022-11-21T00:24:34.554Z,99.99
2022-11-21T00:24:44.540Z,99.99
2022-11-21T00:24:54.552Z,99.99
2022-11-21T00:25:04.532Z,99.99
2022-11-21T00:25:14.541Z,99.99
2022-11-21T00:25:24.527Z,99.99
2022-11-21T00:25:35.731Z,99.99
2022-11-21T00:25:44.568Z,99.99
2022-11-21T00:25:57.686Z,99.99
2022-11-21T00:26:05.541Z,99.99
2022-11-21T00:26:14.524Z,99.99
2022-11-21T00:26:24.520Z,99.99
2022-11-21T00:26:34.562Z,99.99
2022-11-21T00:26:44.653Z,99.99
2022-11-21T00:26:54.516Z,99.99
2022-11-21T00:27:04.521Z,99.99
2022-11-21T00:27:14.652Z,99.99
2022-11-21T00:27:24.559Z,99.99
2022-11-21T00:27:34.604Z,99.99
2022-11-21T00:27:44.522Z,99.99
2022-11-21T00:27:54.563Z,99.99
2022-11-21T00:28:04.721Z,99.99
2022-11-21T00:28:14.527Z,99.99
2022-11-21T00:28:24.503Z,99.99
2022-11-21T00:28:34.518Z,99.99
2022-11-21T00:28:44.538Z,99.99
2022-11-21T00:28:54.503Z,99.99
2022-11-21T00:29:04.542Z,99.98
2022-11-21T00:29:14.518Z,99.94
2022-11-21T00:29:24.507Z,99.98
2022-11-21T00:29:34.509Z,99.88
2022-11-21T00:29:44.508Z,99.88
2022-11-21T00:29:54.514Z,99.77
2022-11-21T00:30:04.534Z,99.77
2022-11-21T00:30:14.518Z,99.73
2022-11-21T00:30:24.518Z,99.77
2022-11-21T00:30:34.517Z,99.71
2022-11-21T00:30:44.522Z,99.57
2022-11-21T00:30:54.556Z,99.57
2022-11-21T00:31:04.516Z,99.51
2022-11-21T00:31:14.507Z,99.46
2022-11-21T00:31:24.507Z,99.46
2022-11-21T00:31:34.511Z,99.31
2022-11-21T00:31:44.537Z,99.40
2022-11-21T00:31:54.542Z,99.35
2022-11-21T00:32:04.614Z,99.25
2022-11-21T00:32:14.683Z,99.25
2022-11-21T00:32:25.038Z,99.25
2022-11-21T00:32:34.521Z,99.35
2022-11-21T00:32:44.619Z,99.21
2022-11-21T00:32:54.573Z,99.30
2022-11-21T00:33:04.519Z,99.25
2022-11-21T00:33:14.526Z,99.25
2022-11-21T00:33:24.496Z,99.10
2022-11-21T00:33:34.499Z,99.10
2022-11-21T00:33:44.522Z,99.10
2022-11-21T00:33:54.484Z,99.00
2022-11-21T00:34:04.496Z,98.94
2022-11-21T00:34:14.521Z,98.89
2022-11-21T00:34:24.789Z,98.83
2022-11-21T00:34:34.539Z,98.94
2022-11-21T00:34:44.510Z,98.83
2022-11-21T00:34:54.502Z,98.83
2022-11-21T00:35:05.040Z,98.83
2022-11-21T00:35:14.532Z,98.68
2022-11-21T00:35:24.498Z,98.83
2022-11-21T00:35:34.486Z,98.72
2022-11-21T00:35:44.535Z,98.72
2022-11-21T00:35:54.596Z,98.72
2022-11-21T00:36:04.504Z,98.62
2022-11-21T00:36:14.505Z,98.62
2022-11-21T00:36:24.552Z,98.62
2022-11-21T00:36:34.538Z,98.52
2022-11-21T00:36:44.495Z,98.58
2022-11-21T00:36:54.492Z,98.52
2022-11-21T00:37:04.525Z,98.52
2022-11-21T00:37:14.473Z,98.47
2022-11-21T00:37:24.485Z,98.52
2022-11-21T00:37:34.480Z,98.47
2022-11-21T00:37:44.486Z,98.37
2022-11-21T00:37:54.641Z,98.37
2022-11-21T00:38:04.520Z,98.47
2022-11-21T00:38:14.482Z,98.37
2022-11-21T00:38:25.035Z,98.47
2022-11-21T00:38:34.471Z,98.47
2022-11-21T00:38:44.490Z,98.37
2022-11-21T00:38:54.500Z,98.41
2022-11-21T00:39:04.486Z,98.31
2022-11-21T00:39:15.180Z,98.41
2022-11-21T00:39:24.506Z,98.31
2022-11-21T00:39:34.471Z,98.16
2022-11-21T00:39:44.483Z,98.26
2022-11-21T00:39:54.481Z,98.26
2022-11-21T00:40:04.465Z,98.16
2022-11-21T00:40:14.492Z,98.16
2022-11-21T00:40:24.497Z,98.21
2022-11-21T00:40:34.536Z,98.26
2022-11-21T00:40:44.485Z,98.16
2022-11-21T00:40:54.478Z,98.21
2022-11-21T00:41:04.607Z,98.26
2022-11-21T00:41:14.501Z,98.26
2022-11-21T00:41:24.454Z,98.26
2022-11-21T00:41:34.468Z,98.16
2022-11-21T00:41:44.472Z,98.16
2022-11-21T00:41:54.487Z,98.01
2022-11-21T00:42:04.505Z,98.05
2022-11-21T00:42:14.450Z,97.95
2022-11-21T00:42:24.488Z,97.95
2022-11-21T00:42:34.467Z,98.10
2022-11-21T00:42:44.481Z,98.10
2022-11-21T00:42:54.498Z,98.10
2022-11-21T00:43:04.512Z,98.05
2022-11-21T00:43:14.513Z,98.10
2022-11-21T00:43:24.463Z,98.05
2022-11-21T00:43:34.515Z,98.05
2022-11-21T00:43:44.487Z,98.05
2022-11-21T00:43:54.539Z,98.05
2022-11-21T00:44:04.471Z,97.95
2022-11-21T00:44:14.452Z,98.10
2022-11-21T00:44:24.881Z,97.99
2022-11-21T00:44:34.463Z,97.95
2022-11-21T00:44:44.509Z,98.05
2022-11-21T00:44:55.013Z,98.05
2022-11-21T00:45:04.471Z,97.95
2022-11-21T00:45:18.369Z,97.99
2022-11-21T00:45:24.853Z,97.95
2022-11-21T00:45:34.487Z,97.80
2022-11-21T00:45:44.462Z,97.85
2022-11-21T00:45:54.450Z,97.85
2022-11-21T00:46:04.513Z,97.74
2022-11-21T00:46:14.466Z,97.74
2022-11-21T00:46:24.454Z,97.80
2022-11-21T00:46:34.473Z,97.74
2022-11-21T00:46:45.022Z,97.74
2022-11-21T00:46:54.443Z,97.78
2022-11-21T00:47:04.438Z,97.74
2022-11-21T00:47:14.457Z,97.74
2022-11-21T00:47:24.438Z,97.74
2022-11-21T00:47:34.436Z,97.74
2022-11-21T00:47:44.464Z,97.74
2022-11-21T00:47:54.453Z,97.74
2022-11-21T00:48:04.491Z,97.68
2022-11-21T00:48:14.528Z,97.63
2022-11-21T00:48:24.450Z,97.55
2022-11-21T00:48:34.565Z,97.49
2022-11-21T00:48:44.483Z,97.63
2022-11-21T00:48:54.543Z,97.63
2022-11-21T00:49:05.030Z,97.63
2022-11-21T00:49:14.429Z,97.63
2022-11-21T00:49:24.433Z,97.49
2022-11-21T00:49:34.470Z,97.49
2022-11-21T00:49:44.444Z,97.53
2022-11-21T00:49:54.427Z,97.49
2022-11-21T00:50:04.446Z,97.53
2022-11-21T00:50:14.432Z,97.53
2022-11-21T00:50:24.470Z,97.49
2022-11-21T00:50:34.423Z,97.49
2022-11-21T00:50:44.439Z,97.53
2022-11-21T00:50:55.042Z,97.53
2022-11-21T00:51:04.438Z,97.49
2022-11-21T00:51:14.435Z,97.42
2022-11-21T00:51:24.426Z,97.42
2022-11-21T00:51:34.422Z,97.53
2022-11-21T00:51:44.418Z,97.32
2022-11-21T00:51:54.443Z,97.38
2022-11-21T00:52:04.431Z,97.38
2022-11-21T00:52:14.445Z,97.42
2022-11-21T00:52:24.441Z,97.38
2022-11-21T00:52:34.445Z,97.38
2022-11-21T00:52:44.451Z,97.42
2022-11-21T00:52:54.432Z,97.53
2022-11-21T00:53:04.485Z,97.38
2022-11-21T00:53:14.491Z,97.38
2022-11-21T00:53:24.494Z,97.53
2022-11-21T00:53:34.494Z,97.49
2022-11-21T00:53:44.634Z,97.49
2022-11-21T00:53:54.417Z,97.63
2022-11-21T00:54:04.434Z,97.63
2022-11-21T00:54:14.417Z,97.59
2022-11-21T00:54:24.672Z,97.63
2022-11-21T00:54:34.424Z,97.49
2022-11-21T00:54:44.428Z,97.53
2022-11-21T00:54:54.407Z,97.49
2022-11-21T00:55:04.550Z,97.49
2022-11-21T00:55:14.429Z,97.49
2022-11-21T00:55:24.410Z,97.59
2022-11-21T00:55:34.433Z,97.53
2022-11-21T00:55:44.411Z,97.53
2022-11-21T00:55:54.416Z,97.49
2022-11-21T00:56:04.406Z,97.49
2022-11-21T00:56:14.438Z,97.49
2022-11-21T00:56:24.423Z,97.63
2022-11-21T00:56:34.509Z,97.49
2022-11-21T00:56:44.404Z,97.53
2022-11-21T00:56:54.422Z,97.49
2022-11-21T00:57:04.449Z,97.49
2022-11-21T00:57:14.490Z,97.49
2022-11-21T00:57:24.409Z,97.49
2022-11-21T00:57:34.397Z,97.49
2022-11-21T00:57:44.400Z,97.59
2022-11-21T00:57:54.420Z,97.63
2022-11-21T00:58:04.403Z,97.49
2022-11-21T00:58:14.389Z,97.49
2022-11-21T00:58:24.426Z,97.53
2022-11-21T00:58:34.465Z,97.59
2022-11-21T00:58:44.401Z,97.53
2022-11-21T00:58:54.425Z,97.49
2022-11-21T00:59:04.418Z,97.49
2022-11-21T00:59:14.424Z,97.38
2022-11-21T00:59:24.431Z,97.38
2022-11-21T00:59:34.411Z,97.28
2022-11-21T00:59:44.414Z,97.28
2022-11-21T00:59:54.501Z,97.28
2022-11-21T01:00:04.422Z,97.38
2022-11-21T01:00:14.402Z,97.42
2022-11-21T01:00:24.561Z,97.42
2022-11-21T01:00:35.265Z,97.42
2022-11-21T01:00:44.399Z,97.42
2022-11-21T01:00:54.424Z,97.38
2022-11-21T01:01:04.669Z,97.49
2022-11-21T01:01:14.478Z,97.49
2022-11-21T01:01:24.577Z,97.38
2022-11-21T01:01:34.380Z,97.53
2022-11-21T01:01:44.413Z,97.49
2022-11-21T01:01:55.020Z,97.49
2022-11-21T01:02:04.385Z,97.38
2022-11-21T01:02:14.379Z,97.38
2022-11-21T01:02:24.395Z,97.53
2022-11-21T01:02:34.398Z,97.49
2022-11-21T01:02:44.434Z,97.49
2022-11-21T01:02:54.496Z,97.59
2022-11-21T01:03:04.450Z,97.63
2022-11-21T01:03:14.388Z,97.69
2022-11-21T01:03:24.423Z,97.69
2022-11-21T01:03:34.397Z,97.59
2022-11-21T01:03:44.585Z,97.69
2022-11-21T01:03:54.369Z,97.59
2022-11-21T01:04:05.016Z,97.59
2022-11-21T01:04:14.438Z,97.59
2022-11-21T01:04:24.557Z,97.59
2022-11-21T01:04:34.470Z,97.65
2022-11-21T01:04:44.390Z,97.69
2022-11-21T01:04:54.374Z,97.69
2022-11-21T01:05:04.369Z,97.75
2022-11-21T01:05:14.543Z,97.80
2022-11-21T01:05:27.033Z,97.65
2022-11-21T01:05:34.359Z,97.65
2022-11-21T01:05:44.456Z,97.80
2022-11-21T01:05:54.382Z,97.69
2022-11-21T01:06:04.422Z,97.91
2022-11-21T01:06:14.388Z,97.91
2022-11-21T01:06:24.394Z,97.91
2022-11-21T01:06:34.376Z,97.81
2022-11-21T01:06:44.392Z,97.86
2022-11-21T01:06:54.392Z,97.91
2022-11-21T01:07:04.516Z,97.86
2022-11-21T01:07:14.618Z,97.71
2022-11-21T01:07:24.435Z,97.65
2022-11-21T01:07:34.664Z,97.69
2022-11-21T01:07:44.397Z,97.55
2022-11-21T01:07:54.357Z,97.44
2022-11-21T01:08:04.428Z,97.50
2022-11-21T01:08:14.355Z,97.55
2022-11-21T01:08:24.362Z,97.44
2022-11-21T01:08:34.390Z,97.34
2022-11-21T01:08:44.355Z,97.49
2022-11-21T01:08:54.472Z,97.38
2022-11-21T01:09:04.345Z,97.23
2022-11-21T01:09:14.784Z,97.23
2022-11-21T01:09:24.355Z,97.23
2022-11-21T01:09:35.009Z,97.34
2022-11-21T01:09:44.483Z,97.19
2022-11-21T01:09:54.361Z,97.34
2022-11-21T01:10:05.020Z,97.34
2022-11-21T01:10:14.382Z,97.29
2022-11-21T01:10:24.399Z,97.23
2022-11-21T01:10:34.366Z,97.34
2022-11-21T01:10:44.345Z,97.44
2022-11-21T01:10:54.365Z,97.34
2022-11-21T01:11:04.350Z,97.34
2022-11-21T01:11:14.407Z,97.34
2022-11-21T01:11:24.373Z,97.44
2022-11-21T01:11:35.026Z,97.29
2022-11-21T01:11:44.334Z,97.29
2022-11-21T01:11:54.381Z,97.34
2022-11-21T01:12:04.362Z,97.19
2022-11-21T01:12:14.340Z,97.19
2022-11-21T01:12:26.000Z,97.19
2022-11-21T01:12:34.352Z,97.23
2022-11-21T01:12:44.395Z,97.19
2022-11-21T01:12:54.347Z,97.13
2022-11-21T01:13:04.374Z,97.13
2022-11-21T01:13:14.343Z,97.08
2022-11-21T01:13:24.346Z,97.08
2022-11-21T01:13:34.372Z,96.98
2022-11-21T01:13:44.413Z,96.98
2022-11-21T01:13:54.334Z,96.98
2022-11-21T01:14:04.421Z,97.08
2022-11-21T01:14:14.366Z,96.94
2022-11-21T01:14:24.507Z,96.98
2022-11-21T01:14:34.329Z,96.98
2022-11-21T01:14:44.357Z,96.98
2022-11-21T01:14:54.337Z,96.98
2022-11-21T01:15:04.335Z,97.02
2022-11-21T01:15:14.323Z,96.98
2022-11-21T01:15:24.356Z,96.94
2022-11-21T01:15:34.377Z,96.98
2022-11-21T01:15:44.375Z,97.13
2022-11-21T01:15:54.352Z,97.08
2022-11-21T01:16:04.332Z,96.98
2022-11-21T01:16:14.401Z,97.08
2022-11-21T01:16:24.353Z,97.04
2022-11-21T01:16:34.330Z,97.08
2022-11-21T01:16:44.357Z,96.98
2022-11-21T01:16:54.348Z,96.98
2022-11-21T01:17:04.331Z,96.88
2022-11-21T01:17:14.328Z,96.92
2022-11-21T01:17:24.349Z,96.88
2022-11-21T01:17:34.333Z,96.88
2022-11-21T01:17:44.338Z,96.88
2022-11-21T01:17:54.370Z,96.88
2022-11-21T01:18:04.502Z,96.88
2022-11-21T01:18:14.337Z,96.88
2022-11-21T01:18:24.314Z,96.98
2022-11-21T01:18:34.353Z,96.94
2022-11-21T01:18:44.340Z,96.88
2022-11-21T01:18:54.320Z,96.88
2022-11-21T01:19:05.035Z,96.88
2022-11-21T01:19:14.548Z,96.81
2022-11-21T01:19:24.359Z,96.77
2022-11-21T01:19:34.310Z,96.77
2022-11-21T01:19:44.345Z,96.92
2022-11-21T01:19:54.371Z,96.83
2022-11-21T01:20:04.305Z,96.98
2022-11-21T01:20:14.335Z,96.88
2022-11-21T01:20:24.327Z,96.88
2022-11-21T01:20:34.311Z,96.88
2022-11-21T01:20:44.307Z,96.88
2022-11-21T01:20:54.336Z,96.88
2022-11-21T01:21:04.321Z,96.83
2022-11-21T01:21:14.309Z,96.94
2022-11-21T01:21:24.350Z,96.83
2022-11-21T01:21:34.316Z,96.83
2022-11-21T01:21:44.306Z,96.77
2022-11-21T01:21:54.373Z,96.88
2022-11-21T01:22:04.396Z,96.83
2022-11-21T01:22:14.349Z,96.72
2022-11-21T01:22:24.341Z,96.83
2022-11-21T01:22:34.313Z,96.88
2022-11-21T01:22:44.360Z,96.94
2022-11-21T01:22:54.344Z,96.88
2022-11-21T01:23:05.037Z,96.88
2022-11-21T01:23:14.628Z,96.94
2022-11-21T01:23:24.304Z,96.83
2022-11-21T01:23:35.043Z,96.83
2022-11-21T01:23:44.308Z,96.94
2022-11-21T01:23:54.293Z,96.88
2022-11-21T01:24:04.338Z,96.98
2022-11-21T01:24:14.313Z,96.88
2022-11-21T01:24:24.498Z,96.94
2022-11-21T01:24:34.342Z,96.83
2022-11-21T01:24:44.288Z,96.72
2022-11-21T01:24:54.327Z,96.62
2022-11-21T01:25:04.361Z,96.62
2022-11-21T01:25:14.293Z,96.62
2022-11-21T01:25:24.308Z,96.66
2022-11-21T01:25:34.341Z,96.51
2022-11-21T01:25:44.335Z,96.47
2022-11-21T01:25:54.312Z,96.51
2022-11-21T01:26:04.333Z,96.41
2022-11-21T01:26:14.289Z,96.51
2022-11-21T01:26:24.302Z,96.51
2022-11-21T01:26:34.300Z,96.51
2022-11-21T01:26:44.384Z,96.47
2022-11-21T01:26:54.331Z,96.51
2022-11-21T01:27:04.276Z,96.47
2022-11-21T01:27:14.285Z,96.45
2022-11-21T01:27:24.275Z,96.47
2022-11-21T01:27:34.308Z,96.41
2022-11-21T01:27:44.287Z,96.51
2022-11-21T01:27:55.038Z,96.47
2022-11-21T01:28:04.313Z,96.51
2022-11-21T01:28:14.403Z,96.51
2022-11-21T01:28:24.292Z,96.58
2022-11-21T01:28:34.287Z,96.58
2022-11-21T01:28:44.292Z,96.58
2022-11-21T01:28:54.290Z,96.58
2022-11-21T01:29:04.270Z,96.62
2022-11-21T01:29:14.306Z,96.62
2022-11-21T01:29:24.284Z,96.72
2022-11-21T01:29:34.329Z,96.68
2022-11-21T01:29:44.415Z,96.68
2022-11-21T01:29:54.296Z,96.78
2022-11-21T01:30:04.279Z,96.78
2022-11-21T01:30:15.020Z,96.64
2022-11-21T01:30:24.291Z,96.58
2022-11-21T01:30:34.274Z,96.47
2022-11-21T01:30:44.279Z,96.47
2022-11-21T01:30:54.271Z,96.47
2022-11-21T01:31:04.283Z,96.37
2022-11-21T01:31:14.331Z,96.33
2022-11-21T01:31:24.354Z,96.11
2022-11-21T01:31:34.282Z,96.16
2022-11-21T01:31:44.295Z,96.11
2022-11-21T01:31:54.286Z,96.05
2022-11-21T01:32:04.288Z,96.05
2022-11-21T01:32:15.027Z,96.05
2022-11-21T01:32:24.260Z,95.90
2022-11-21T01:32:34.258Z,96.01
2022-11-21T01:32:44.265Z,96.05
2022-11-21T01:32:54.255Z,95.90
2022-11-21T01:33:04.301Z,96.05
2022-11-21T01:33:14.272Z,96.01
2022-11-21T01:33:24.302Z,95.95
2022-11-21T01:33:34.251Z,95.95
2022-11-21T01:33:44.268Z,95.95
2022-11-21T01:33:54.259Z,95.90
2022-11-21T01:34:04.264Z,95.95
2022-11-21T01:34:14.291Z,95.90
2022-11-21T01:34:24.321Z,95.84
2022-11-21T01:34:34.263Z,95.84
2022-11-21T01:34:44.385Z,95.70
2022-11-21T01:34:55.155Z,95.70
2022-11-21T01:35:04.314Z,95.74
2022-11-21T01:35:14.302Z,95.59
2022-11-21T01:35:24.424Z,95.59
2022-11-21T01:35:34.291Z,95.70
2022-11-21T01:35:44.252Z,95.59
2022-11-21T01:35:54.250Z,95.49
2022-11-21T01:36:04.256Z,95.44
2022-11-21T01:36:14.240Z,95.59
2022-11-21T01:36:25.016Z,95.59
2022-11-21T01:36:34.250Z,95.55
2022-11-21T01:36:44.253Z,95.70
2022-11-21T01:36:54.253Z,95.55
2022-11-21T01:37:04.260Z,95.59
2022-11-21T01:37:14.246Z,95.55
2022-11-21T01:37:24.294Z,95.49
2022-11-21T01:37:34.241Z,95.59
2022-11-21T01:37:44.250Z,95.65
2022-11-21T01:37:54.254Z,95.70
2022-11-21T01:38:04.244Z,95.55
2022-11-21T01:38:14.269Z,95.55
2022-11-21T01:38:24.288Z,95.49
2022-11-21T01:38:34.286Z,95.44
2022-11-21T01:38:45.019Z,95.34
2022-11-21T01:38:54.239Z,95.28
2022-11-21T01:39:04.237Z,95.23
2022-11-21T01:39:14.259Z,95.23
2022-11-21T01:39:24.278Z,95.23
2022-11-21T01:39:34.231Z,95.13
2022-11-21T01:39:44.253Z,95.13
2022-11-21T01:39:54.297Z,95.17
2022-11-21T01:40:04.232Z,95.17
2022-11-21T01:40:14.234Z,95.23
2022-11-21T01:40:25.020Z,95.19
2022-11-21T01:40:35.015Z,95.23
2022-11-21T01:40:44.229Z,95.09
2022-11-21T01:40:54.223Z,95.17
2022-11-21T01:41:04.242Z,95.13
2022-11-21T01:41:14.261Z,95.13
2022-11-21T01:41:24.232Z,95.13
2022-11-21T01:41:34.251Z,95.03
2022-11-21T01:41:44.242Z,95.03
2022-11-21T01:41:54.232Z,94.98
2022-11-21T01:42:04.283Z,94.98
2022-11-21T01:42:14.251Z,94.92
2022-11-21T01:42:24.223Z,94.78
2022-11-21T01:42:35.032Z,94.78
2022-11-21T01:42:44.320Z,94.78
2022-11-21T01:42:54.226Z,94.71
2022-11-21T01:43:04.214Z,94.71
2022-11-21T01:43:14.256Z,94.71
2022-11-21T01:43:24.234Z,94.71
2022-11-21T01:43:34.221Z,94.57
2022-11-21T01:43:45.025Z,94.71
2022-11-21T01:43:54.333Z,94.67
2022-11-21T01:44:04.287Z,94.71
2022-11-21T01:44:14.211Z,94.63
2022-11-21T01:44:24.238Z,94.46
2022-11-21T01:44:34.220Z,94.61
2022-11-21T01:44:44.430Z,94.57
2022-11-21T01:44:54.307Z,94.57
2022-11-21T01:45:04.653Z,94.61
2022-11-21T01:45:14.207Z,94.57
2022-11-21T01:45:24.222Z,94.57
2022-11-21T01:45:34.223Z,94.57
2022-11-21T01:45:44.210Z,94.61
2022-11-21T01:45:54.251Z,94.61
2022-11-21T01:46:04.273Z,94.57
2022-11-21T01:46:14.206Z,94.57
2022-11-21T01:46:24.203Z,94.42
2022-11-21T01:46:34.291Z,94.57
2022-11-21T01:46:44.206Z,94.46
2022-11-21T01:46:54.243Z,94.46
2022-11-21T01:47:04.203Z,94.46
2022-11-21T01:47:14.227Z,94.35
2022-11-21T01:47:24.243Z,94.50
2022-11-21T01:47:35.210Z,94.46
2022-11-21T01:47:44.221Z,94.46
2022-11-21T01:47:54.225Z,94.35
2022-11-21T01:48:04.197Z,94.35
2022-11-21T01:48:14.224Z,94.25
2022-11-21T01:48:24.214Z,94.35
2022-11-21T01:48:34.198Z,94.35
2022-11-21T01:48:44.239Z,94.25
2022-11-21T01:48:55.065Z,94.31
2022-11-21T01:49:04.209Z,94.21
2022-11-21T01:49:14.217Z,94.25
2022-11-21T01:49:24.202Z,94.21
2022-11-21T01:49:34.198Z,94.10
2022-11-21T01:49:44.210Z,94.25
2022-11-21T01:49:54.190Z,94.25
2022-11-21T01:50:05.053Z,94.21
2022-11-21T01:50:14.286Z,94.21
2022-11-21T01:50:24.190Z,94.21
2022-11-21T01:50:34.216Z,94.15
2022-11-21T01:50:44.259Z,94.25
2022-11-21T01:50:54.227Z,94.21
2022-11-21T01:51:04.308Z,94.15
2022-11-21T01:51:14.207Z,94.15
2022-11-21T01:51:24.190Z,94.15
2022-11-21T01:51:34.232Z,94.10
2022-11-21T01:51:44.205Z,94.00
2022-11-21T01:51:54.193Z,94.04
2022-11-21T01:52:04.181Z,94.04
2022-11-21T01:52:14.190Z,93.90
2022-11-21T01:52:24.194Z,93.90
2022-11-21T01:52:34.218Z,93.90
2022-11-21T01:52:45.136Z,93.79
2022-11-21T01:52:54.185Z,93.79
2022-11-21T01:53:04.228Z,93.79
2022-11-21T01:53:14.314Z,93.65
2022-11-21T01:53:24.203Z,93.69
2022-11-21T01:53:34.180Z,93.69
2022-11-21T01:53:44.192Z,93.79
2022-11-21T01:53:54.198Z,93.69
2022-11-21T01:54:04.186Z,93.69
2022-11-21T01:54:14.181Z,93.59
2022-11-21T01:54:24.389Z,93.48
2022-11-21T01:54:34.242Z,93.48
2022-11-21T01:54:44.174Z,93.27
2022-11-21T01:54:55.025Z,93.27
2022-11-21T01:55:04.169Z,93.23
2022-11-21T01:55:14.179Z,93.16
2022-11-21T01:55:24.415Z,93.16
2022-11-21T01:55:34.174Z,93.16
2022-11-21T01:55:45.027Z,93.02
2022-11-21T01:55:54.172Z,93.06
2022-11-21T01:56:04.213Z,93.06
2022-11-21T01:56:14.172Z,92.96
2022-11-21T01:56:24.167Z,93.02
2022-11-21T01:56:34.162Z,92.96
2022-11-21T01:56:44.180Z,93.06
2022-11-21T01:56:54.305Z,93.02
2022-11-21T01:57:04.163Z,93.06
2022-11-21T01:57:14.185Z,92.96
2022-11-21T01:57:24.204Z,92.91
2022-11-21T01:57:34.175Z,93.02
2022-11-21T01:57:44.175Z,93.06
2022-11-21T01:57:54.192Z,92.91
2022-11-21T01:58:04.174Z,93.06
2022-11-21T01:58:14.157Z,93.02
2022-11-21T01:58:24.156Z,92.91
2022-11-21T01:58:34.161Z,92.96
2022-11-21T01:58:44.195Z,93.02
2022-11-21T01:58:54.195Z,92.96
2022-11-21T01:59:04.166Z,93.06
2022-11-21T01:59:15.036Z,93.06
2022-11-21T01:59:24.344Z,93.02
2022-11-21T01:59:34.186Z,93.06
2022-11-21T01:59:44.196Z,93.06
2022-11-21T01:59:54.151Z,93.06
2022-11-21T02:00:04.183Z,93.06
2022-11-21T02:00:14.214Z,93.02
2022-11-21T02:00:24.155Z,93.02
2022-11-21T02:00:34.314Z,93.02
2022-11-21T02:00:44.254Z,92.91
2022-11-21T02:00:54.255Z,92.96
2022-11-21T02:01:04.229Z,92.91
2022-11-21T02:01:14.355Z,92.96
2022-11-21T02:01:24.305Z,92.81
2022-11-21T02:01:34.143Z,92.85
2022-11-21T02:01:44.151Z,92.96
2022-11-21T02:01:54.154Z,92.85
2022-11-21T02:02:04.192Z,92.85
2022-11-21T02:02:14.159Z,92.81
2022-11-21T02:02:24.145Z,92.75
2022-11-21T02:02:34.184Z,92.75
2022-11-21T02:02:44.139Z,92.81
2022-11-21T02:02:54.154Z,92.85
2022-11-21T02:03:04.147Z,92.96
2022-11-21T02:03:14.146Z,92.96
2022-11-21T02:03:24.166Z,92.91
2022-11-21T02:03:34.295Z,92.85
2022-11-21T02:03:44.139Z,92.85
2022-11-21T02:03:54.158Z,92.81
2022-11-21T02:04:04.287Z,92.91
2022-11-21T02:04:14.147Z,92.96
2022-11-21T02:04:24.217Z,92.85
2022-11-21T02:04:34.133Z,92.81
2022-11-21T02:04:44.150Z,92.81
2022-11-21T02:04:55.023Z,92.75
2022-11-21T02:05:04.136Z,92.71
2022-11-21T02:05:14.149Z,92.75
2022-11-21T02:05:24.172Z,92.75
2022-11-21T02:05:34.139Z,92.71
2022-11-21T02:05:44.306Z,92.65
2022-11-21T02:05:54.132Z,92.60
2022-11-21T02:06:04.123Z,92.54
2022-11-21T02:06:14.149Z,92.60
2022-11-21T02:06:24.177Z,92.60
2022-11-21T02:06:34.214Z,92.60
2022-11-21T02:06:44.153Z,92.65
2022-11-21T02:06:54.170Z,92.71
2022-11-21T02:07:07.164Z,92.71
2022-11-21T02:07:14.231Z,92.71
2022-11-21T02:07:24.193Z,92.71
2022-11-21T02:07:34.274Z,92.81
2022-11-21T02:07:44.212Z,92.71
2022-11-21T02:07:54.119Z,92.75
2022-11-21T02:08:04.129Z,92.75
2022-11-21T02:08:14.154Z,92.75
2022-11-21T02:08:24.126Z,92.85
2022-11-21T02:08:34.136Z,92.85
2022-11-21T02:08:44.170Z,92.71